Aérodrome :
LOGIN :

S'inscrire | Disclaimer

   EN    FR    IT 

 










Légende :    VFR   VFR Marginal   IFR   IFR Intensif   IFR Très Intensif
Visi : 
Plafond : 
>= 8 km
>= 3000ft
5 à 8 km
1000 à 3000 ft
1500m à 5 km
500 à 1000 ft
800 à 1500m
200 à 500 ft
< 800m
< 200 ft
Symboles :   Orages  Brouillard  Fortes neiges  Fortes précipitations  Vent > 20 kt
SIGMETs :   Divers  Orages  Givrage  Turbulence  Onde Orograph.  Cendres Volcan.






- Altitude de l'aérodrome : 526 ft
- Code IATA : LTN


EGGW - London Luton

DERNIER METAR :
  • 110320Z AUTO 21004KT 180V260 9999 NCD 03/02 Q1007

METARs EXPIRÉS :
  • 110250Z AUTO 23009KT 9999 NCD 04/02 Q1007
  • 110220Z AUTO 24010KT 9999 NCD 04/02 Q1007
  • 110150Z AUTO 24011KT 9999 NCD 05/02 Q1007
  • 110120Z AUTO 24010KT 9999 NCD 05/03 Q1007
  • 110050Z AUTO 24011KT 9999 NCD 05/03 Q1007

TAF TAF EGGW
Valide du 11 à 00h jusqu'au 12 à 00h UTC


102304Z 1100/1124 25010KT 9999 FEW030
PROB30 1104/1108 8000
BECMG 1105/1108 19008KT
TEMPO 1114/1118 6000 SHRA BKN009
BECMG 1116/1118 26010KT
ATIS : +44 1582 395 204



MET'MAP, la Météo Aéronautique d'un coup d'oeil ! - Copyright ORBIFLY Décembre 2007 - Disclaimer

ORBIFLY MET'MAP TEAM :

Programmation & Développement : Alexandra Zaïnal
Sur une idée originale de : Baudouin d'Aumeries
Assistance à la programmation : Marc-Olivier Méhu
Soutien technique & logistique : Manuel Goepfert

Contact : metmap@orbifly.com




SOURCES & CREDITS :

   NOAA